createdAt,value
2019-03-05T00:00:07.987Z,8.39
2019-03-05T00:01:07.977Z,8.46
2019-03-05T00:02:07.964Z,8.40
2019-03-05T00:03:07.954Z,8.46
2019-03-05T00:04:07.945Z,8.43
2019-03-05T00:05:07.937Z,8.43
2019-03-05T00:06:07.930Z,8.43
2019-03-05T00:07:07.923Z,8.45
2019-03-05T00:08:07.906Z,8.45
2019-03-05T00:09:07.895Z,8.40
2019-03-05T00:10:07.890Z,8.34
2019-03-05T00:11:07.881Z,8.45
2019-03-05T00:12:07.869Z,8.39
2019-03-05T00:13:07.859Z,8.45
2019-03-05T00:14:07.843Z,8.39
2019-03-05T00:15:07.834Z,8.32
2019-03-05T00:16:07.825Z,8.37
2019-03-05T00:17:07.813Z,8.29
2019-03-05T00:18:07.812Z,8.37
2019-03-05T00:19:07.798Z,8.40
2019-03-05T00:20:07.791Z,8.45
2019-03-05T00:21:07.782Z,8.40
2019-03-05T00:22:07.768Z,8.39
2019-03-05T00:23:08.411Z,8.42
2019-03-05T00:24:07.751Z,8.55
2019-03-05T00:25:07.744Z,8.54
2019-03-05T00:26:07.728Z,8.39
2019-03-05T00:27:07.717Z,8.52
2019-03-05T00:28:07.705Z,8.49
2019-03-05T00:29:07.696Z,8.57
2019-03-05T00:30:07.690Z,8.46
2019-03-05T00:31:07.680Z,8.45
2019-03-05T00:32:07.670Z,8.39
2019-03-05T00:33:07.661Z,8.42
2019-03-05T00:34:07.645Z,8.43
2019-03-05T00:35:07.636Z,8.42
2019-03-05T00:36:07.629Z,8.40
2019-03-05T00:37:07.619Z,8.37
2019-03-05T00:38:07.615Z,8.34
2019-03-05T00:39:07.612Z,8.36
2019-03-05T00:40:07.590Z,8.34
2019-03-05T00:41:07.579Z,8.32
2019-03-05T00:42:07.574Z,8.25
2019-03-05T00:43:07.563Z,8.25
2019-03-05T00:44:07.551Z,8.27
2019-03-05T00:45:07.541Z,8.21
2019-03-05T00:46:07.527Z,8.22
2019-03-05T00:47:07.517Z,8.25
2019-03-05T00:48:07.506Z,8.22
2019-03-05T00:49:07.498Z,8.20
2019-03-05T00:50:07.492Z,8.22
2019-03-05T00:51:07.481Z,8.22
2019-03-05T00:52:07.478Z,8.29
2019-03-05T00:53:07.464Z,8.32
2019-03-05T00:54:07.450Z,8.28
2019-03-05T00:55:07.440Z,8.28
2019-03-05T00:56:07.435Z,8.21
2019-03-05T00:57:07.425Z,8.25
2019-03-05T00:58:07.410Z,8.25
2019-03-05T00:59:07.399Z,8.28
2019-03-05T01:00:07.389Z,8.28
2019-03-05T01:01:07.377Z,8.28
2019-03-05T01:02:07.375Z,8.29
2019-03-05T01:03:07.362Z,8.36
2019-03-05T01:04:07.351Z,8.27
2019-03-05T01:05:07.344Z,8.29
2019-03-05T01:06:07.328Z,8.34
2019-03-05T01:07:07.315Z,8.32
2019-03-05T01:08:07.309Z,8.40
2019-03-05T01:09:07.299Z,8.34
2019-03-05T01:10:07.294Z,8.47
2019-03-05T01:11:07.283Z,8.37
2019-03-05T01:12:07.270Z,8.42
2019-03-05T01:13:07.278Z,8.39
2019-03-05T01:14:07.257Z,8.39
2019-03-05T01:15:07.244Z,8.45
2019-03-05T01:16:07.233Z,8.46
2019-03-05T01:17:07.221Z,8.36
2019-03-05T01:18:07.208Z,8.40
2019-03-05T01:19:07.202Z,8.39
2019-03-05T01:20:07.189Z,8.36
2019-03-05T01:21:07.179Z,8.42
2019-03-05T01:22:07.177Z,8.42
2019-03-05T01:23:07.168Z,8.45
2019-03-05T01:24:07.151Z,8.36
2019-03-05T01:25:07.144Z,8.36
2019-03-05T01:26:07.127Z,8.37
2019-03-05T01:27:07.117Z,8.40
2019-03-05T01:28:07.111Z,8.39
2019-03-05T01:29:07.102Z,8.39
2019-03-05T01:30:07.089Z,8.43
2019-03-05T01:31:07.079Z,8.42
2019-03-05T01:32:07.069Z,8.42
2019-03-05T01:33:07.060Z,8.40
2019-03-05T01:34:07.056Z,8.45
2019-03-05T01:35:07.047Z,8.42
2019-03-05T01:36:07.034Z,8.36
2019-03-05T01:37:07.025Z,8.42
2019-03-05T01:38:07.066Z,8.46
2019-03-05T01:39:07.000Z,8.45
2019-03-05T01:40:06.988Z,8.45
2019-03-05T01:41:06.978Z,8.40
2019-03-05T01:42:06.974Z,8.36
2019-03-05T01:43:06.962Z,8.34
2019-03-05T01:44:06.947Z,8.45
2019-03-05T01:45:06.938Z,8.39
2019-03-05T01:46:06.932Z,8.40
2019-03-05T01:47:06.923Z,8.32
2019-03-05T01:48:06.915Z,8.29
2019-03-05T01:49:06.985Z,8.24
2019-03-05T01:50:06.893Z,8.22
2019-03-05T01:51:06.881Z,8.22
2019-03-05T01:52:06.870Z,8.13
2019-03-05T01:53:06.862Z,8.13
2019-03-05T01:54:06.857Z,8.02
2019-03-05T01:55:06.846Z,8.00
2019-03-05T01:56:06.833Z,7.99
2019-03-05T01:57:06.824Z,7.89
2019-03-05T01:58:06.811Z,7.85
2019-03-05T01:59:06.799Z,7.89
2019-03-05T02:00:06.794Z,7.88
2019-03-05T02:01:06.787Z,7.86
2019-03-05T02:02:06.768Z,7.89
2019-03-05T02:03:06.759Z,7.86
2019-03-05T02:04:06.752Z,7.88
2019-03-05T02:05:06.741Z,7.86
2019-03-05T02:06:06.736Z,7.88
2019-03-05T02:07:06.724Z,7.85
2019-03-05T02:08:06.715Z,7.85
2019-03-05T02:09:06.705Z,7.86
2019-03-05T02:10:06.692Z,7.77
2019-03-05T02:11:06.680Z,7.79
2019-03-05T02:12:06.668Z,7.76
2019-03-05T02:13:06.656Z,7.84
2019-03-05T02:14:06.656Z,7.81
2019-03-05T02:15:06.643Z,7.79
2019-03-05T02:16:06.627Z,7.73
2019-03-05T02:17:06.615Z,7.76
2019-03-05T02:18:06.615Z,7.69
2019-03-05T02:19:06.602Z,7.69
2019-03-05T02:20:06.592Z,7.63
2019-03-05T02:21:06.583Z,7.58
2019-03-05T02:22:06.568Z,7.54
2019-03-05T02:23:06.561Z,7.55
2019-03-05T02:24:06.545Z,7.51
2019-03-05T02:25:06.536Z,7.55
2019-03-05T02:26:06.528Z,7.55
2019-03-05T02:27:06.518Z,7.50
2019-03-05T02:28:06.512Z,7.50
2019-03-05T02:29:06.500Z,7.42
2019-03-05T02:30:06.497Z,7.48
2019-03-05T02:31:06.475Z,7.45
2019-03-05T02:32:06.470Z,7.45
2019-03-05T02:33:06.466Z,7.45
2019-03-05T02:34:06.444Z,7.45
2019-03-05T02:35:06.439Z,7.45
2019-03-05T02:36:06.422Z,7.48
2019-03-05T02:37:06.411Z,7.44
2019-03-05T02:38:06.481Z,7.42
2019-03-05T02:39:06.395Z,7.48
2019-03-05T02:40:06.385Z,7.50
2019-03-05T02:41:06.375Z,7.55
2019-03-05T02:42:06.361Z,7.52
2019-03-05T02:43:06.347Z,7.47
2019-03-05T02:44:06.341Z,7.48
2019-03-05T02:45:06.334Z,7.42
2019-03-05T02:46:06.326Z,7.47
2019-03-05T02:47:06.317Z,7.48
2019-03-05T02:48:06.300Z,7.47
2019-03-05T02:49:06.308Z,7.51
2019-03-05T02:50:06.285Z,7.42
2019-03-05T02:51:06.272Z,7.51
2019-03-05T02:52:06.259Z,7.42
2019-03-05T02:53:06.251Z,7.41
2019-03-05T02:54:06.234Z,7.48
2019-03-05T02:55:06.228Z,7.48
2019-03-05T02:56:06.216Z,7.48
2019-03-05T02:57:06.203Z,7.55
2019-03-05T02:58:06.201Z,7.60
2019-03-05T02:59:06.189Z,7.57
2019-03-05T03:00:06.180Z,7.57
2019-03-05T03:01:06.176Z,7.62
2019-03-05T03:02:06.157Z,7.62
2019-03-05T03:03:06.152Z,7.60
2019-03-05T03:04:06.138Z,7.60
2019-03-05T03:05:06.136Z,7.60
2019-03-05T03:06:06.115Z,7.62
2019-03-05T03:07:06.104Z,7.66
2019-03-05T03:08:06.091Z,7.66
2019-03-05T03:09:06.081Z,7.63
2019-03-05T03:10:06.079Z,7.66
2019-03-05T03:11:06.065Z,7.69
2019-03-05T03:12:06.057Z,7.62
2019-03-05T03:13:06.046Z,7.67
2019-03-05T03:14:06.032Z,7.71
2019-03-05T03:15:06.021Z,7.66
2019-03-05T03:16:06.012Z,7.62
2019-03-05T03:17:06.003Z,7.66
2019-03-05T03:18:05.998Z,7.69
2019-03-05T03:19:05.983Z,7.66
2019-03-05T03:20:05.975Z,7.67
2019-03-05T03:21:05.964Z,7.66
2019-03-05T03:22:05.955Z,7.73
2019-03-05T03:23:05.945Z,7.79
2019-03-05T03:24:05.932Z,7.74
2019-03-05T03:25:05.923Z,7.74
2019-03-05T03:26:05.920Z,7.74
2019-03-05T03:27:06.008Z,7.69
2019-03-05T03:28:05.893Z,7.71
2019-03-05T03:29:05.880Z,7.74
2019-03-05T03:30:05.879Z,7.73
2019-03-05T03:31:05.888Z,7.77
2019-03-05T03:32:05.853Z,7.77
2019-03-05T03:33:05.846Z,7.73
2019-03-05T03:34:05.830Z,7.70
2019-03-05T03:35:05.836Z,7.66
2019-03-05T03:36:05.810Z,7.66
2019-03-05T03:37:05.805Z,7.62
2019-03-05T03:38:05.784Z,7.57
2019-03-05T03:39:05.778Z,7.66
2019-03-05T03:40:06.256Z,7.55
2019-03-05T03:41:05.764Z,7.51
2019-03-05T03:42:05.753Z,7.54
2019-03-05T03:43:05.740Z,7.42
2019-03-05T03:44:05.734Z,7.50
2019-03-05T03:45:05.720Z,7.50
2019-03-05T03:46:05.706Z,7.45
2019-03-05T03:47:05.710Z,7.54
2019-03-05T03:48:05.682Z,7.47
2019-03-05T03:49:05.671Z,7.47
2019-03-05T03:50:05.776Z,7.45
2019-03-05T03:51:05.760Z,7.42
2019-03-05T03:52:05.641Z,7.30
2019-03-05T03:53:05.630Z,7.44
2019-03-05T03:54:05.632Z,7.37
2019-03-05T03:55:05.614Z,7.33
2019-03-05T03:56:05.605Z,7.36
2019-03-05T03:57:05.599Z,7.37
2019-03-05T03:58:05.582Z,7.41
2019-03-05T03:59:05.571Z,7.41
2019-03-05T04:00:05.562Z,7.44
2019-03-05T04:01:07.193Z,7.39
2019-03-05T04:02:05.545Z,7.42
2019-03-05T04:03:05.533Z,7.44
2019-03-05T04:04:05.525Z,7.48
2019-03-05T04:05:05.511Z,7.47
2019-03-05T04:06:05.499Z,7.42
2019-03-05T04:07:05.486Z,7.48
2019-03-05T04:08:05.483Z,7.42
2019-03-05T04:09:05.467Z,7.45
2019-03-05T04:10:05.453Z,7.42
2019-03-05T04:11:05.450Z,7.42
2019-03-05T04:12:05.436Z,7.45
2019-03-05T04:13:05.428Z,7.44
2019-03-05T04:14:05.425Z,7.48
2019-03-05T04:15:05.407Z,7.45
2019-03-05T04:16:05.397Z,7.47
2019-03-05T04:17:05.392Z,7.47
2019-03-05T04:18:05.383Z,7.47
2019-03-05T04:19:05.362Z,7.47
2019-03-05T04:20:05.348Z,7.44
2019-03-05T04:21:05.338Z,7.48
2019-03-05T04:22:05.334Z,7.45
2019-03-05T04:23:05.322Z,7.44
2019-03-05T04:24:05.306Z,7.47
2019-03-05T04:25:05.302Z,7.45
2019-03-05T04:26:05.291Z,7.44
2019-03-05T04:27:05.288Z,7.47
2019-03-05T04:28:05.272Z,7.39
2019-03-05T04:29:05.263Z,7.39
2019-03-05T04:30:05.249Z,7.36
2019-03-05T04:31:05.236Z,7.32
2019-03-05T04:32:05.228Z,7.32
2019-03-05T04:33:05.219Z,7.18
2019-03-05T04:34:05.203Z,7.32
2019-03-05T04:35:05.192Z,7.29
2019-03-05T04:36:05.187Z,7.32
2019-03-05T04:37:05.176Z,7.18
2019-03-05T04:38:05.170Z,7.26
2019-03-05T04:39:05.157Z,7.29
2019-03-05T04:40:05.143Z,7.29
2019-03-05T04:41:05.133Z,7.32
2019-03-05T04:42:05.126Z,7.24
2019-03-05T04:43:05.117Z,7.26
2019-03-05T04:44:05.105Z,7.26
2019-03-05T04:45:05.093Z,7.32
2019-03-05T04:46:05.082Z,7.29
2019-03-05T04:47:05.067Z,7.29
2019-03-05T04:48:05.059Z,7.29
2019-03-05T04:49:05.046Z,7.21
2019-03-05T04:50:05.043Z,7.26
2019-03-05T04:51:05.031Z,7.33
2019-03-05T04:52:05.022Z,7.27
2019-03-05T04:53:05.013Z,7.34
2019-03-05T04:54:04.998Z,7.29
2019-03-05T04:55:04.988Z,7.37
2019-03-05T04:56:04.980Z,7.23
2019-03-05T04:57:04.977Z,7.27
2019-03-05T04:58:04.956Z,7.21
2019-03-05T04:59:04.945Z,7.29
2019-03-05T05:00:04.931Z,7.29
2019-03-05T05:01:04.924Z,7.27
2019-03-05T05:02:04.919Z,7.41
2019-03-05T05:03:04.907Z,7.44
2019-03-05T05:04:04.894Z,7.39
2019-03-05T05:05:04.885Z,7.42
2019-03-05T05:06:04.870Z,7.51
2019-03-05T05:07:04.860Z,7.45
2019-03-05T05:08:04.851Z,7.42
2019-03-05T05:09:04.840Z,7.42
2019-03-05T05:10:04.835Z,7.45
2019-03-05T05:11:04.825Z,7.48
2019-03-05T05:12:04.810Z,7.48
2019-03-05T05:13:04.799Z,7.52
2019-03-05T05:14:04.793Z,7.63
2019-03-05T05:15:04.780Z,7.58
2019-03-05T05:16:04.769Z,7.60
2019-03-05T05:17:04.763Z,7.57
2019-03-05T05:18:04.744Z,7.63
2019-03-05T05:19:04.738Z,7.63
2019-03-05T05:20:04.722Z,7.66
2019-03-05T05:21:04.713Z,7.67
2019-03-05T05:22:04.707Z,7.70
2019-03-05T05:23:04.696Z,7.71
2019-03-05T05:24:04.689Z,7.66
2019-03-05T05:25:04.677Z,7.71
2019-03-05T05:26:04.664Z,7.70
2019-03-05T05:27:04.651Z,7.73
2019-03-05T05:28:04.646Z,7.73
2019-03-05T05:29:04.638Z,7.73
2019-03-05T05:30:04.621Z,7.73
2019-03-05T05:31:04.615Z,7.69
2019-03-05T05:32:04.599Z,7.74
2019-03-05T05:33:04.588Z,7.74
2019-03-05T05:34:04.584Z,7.77
2019-03-05T05:35:04.570Z,7.63
2019-03-05T05:36:04.564Z,7.77
2019-03-05T05:37:04.555Z,7.76
2019-03-05T05:38:04.552Z,7.88
2019-03-05T05:39:04.529Z,7.84
2019-03-05T05:40:04.925Z,7.88
2019-03-05T05:41:04.508Z,7.85
2019-03-05T05:42:04.503Z,7.74
2019-03-05T05:43:04.489Z,7.84
2019-03-05T05:44:04.474Z,7.88
2019-03-05T05:45:04.466Z,7.77
2019-03-05T05:46:04.459Z,7.86
2019-03-05T05:47:04.448Z,7.76
2019-03-05T05:48:04.440Z,7.86
2019-03-05T05:49:04.433Z,7.86
2019-03-05T05:50:04.417Z,7.84
2019-03-05T05:51:04.408Z,7.79
2019-03-05T05:52:04.396Z,7.77
2019-03-05T05:53:04.387Z,7.82
2019-03-05T05:54:04.380Z,7.67
2019-03-05T05:55:04.369Z,7.77
2019-03-05T05:56:04.355Z,7.82
2019-03-05T05:57:04.348Z,7.81
2019-03-05T05:58:04.344Z,7.71
2019-03-05T05:59:04.321Z,7.73
2019-03-05T06:00:04.316Z,7.73
2019-03-05T06:01:04.306Z,7.73
2019-03-05T06:02:04.291Z,7.73
2019-03-05T06:03:04.279Z,7.73
2019-03-05T06:04:04.272Z,7.82
2019-03-05T06:05:04.263Z,7.71
2019-03-05T06:06:04.261Z,7.73
2019-03-05T06:07:04.246Z,7.70
2019-03-05T06:08:04.239Z,7.71
2019-03-05T06:09:04.229Z,7.70
2019-03-05T06:10:04.213Z,7.69
2019-03-05T06:11:04.200Z,7.66
2019-03-05T06:12:04.189Z,7.66
2019-03-05T06:13:04.178Z,7.62
2019-03-05T06:14:04.178Z,7.60
2019-03-05T06:15:04.165Z,7.73
2019-03-05T06:16:04.149Z,7.69
2019-03-05T06:17:04.140Z,7.67
2019-03-05T06:18:04.134Z,7.63
2019-03-05T06:19:04.122Z,7.62
2019-03-05T06:20:04.114Z,7.62
2019-03-05T06:21:04.106Z,7.58
2019-03-05T06:22:04.092Z,7.66
2019-03-05T06:23:04.092Z,7.54
2019-03-05T06:24:04.068Z,7.67
2019-03-05T06:25:04.067Z,7.62
2019-03-05T06:26:04.055Z,7.57
2019-03-05T06:27:04.043Z,7.58
2019-03-05T06:28:04.034Z,7.62
2019-03-05T06:29:04.019Z,7.55
2019-03-05T06:30:04.005Z,7.58
2019-03-05T06:31:04.029Z,7.60
2019-03-05T06:32:03.990Z,7.50
2019-03-05T06:33:03.984Z,7.45
2019-03-05T06:34:03.978Z,7.51
2019-03-05T06:35:03.954Z,7.45
2019-03-05T06:36:03.948Z,7.45
2019-03-05T06:37:03.937Z,7.41
2019-03-05T06:38:03.931Z,7.41
2019-03-05T06:39:03.920Z,7.44
2019-03-05T06:40:03.911Z,7.47
2019-03-05T06:41:03.897Z,7.42
2019-03-05T06:42:03.883Z,7.42
2019-03-05T06:43:03.871Z,7.45
2019-03-05T06:44:03.865Z,7.45
2019-03-05T06:45:03.856Z,7.45
2019-03-05T06:46:03.854Z,7.50
2019-03-05T06:47:03.839Z,7.52
2019-03-05T06:48:03.826Z,7.50
2019-03-05T06:49:03.816Z,7.50
2019-03-05T06:50:03.810Z,7.54
2019-03-05T06:51:03.797Z,7.47
2019-03-05T06:52:03.786Z,7.54
2019-03-05T06:53:03.785Z,7.44
2019-03-05T06:54:03.763Z,7.48
2019-03-05T06:55:03.754Z,7.50
2019-03-05T06:56:03.740Z,7.48
2019-03-05T06:57:03.732Z,7.37
2019-03-05T06:58:03.727Z,7.26
2019-03-05T06:59:03.714Z,7.26
2019-03-05T07:00:03.708Z,7.24
2019-03-05T07:01:03.696Z,7.26
2019-03-05T07:02:03.682Z,7.24
2019-03-05T07:03:03.698Z,7.11
2019-03-05T07:04:03.665Z,7.12
2019-03-05T07:05:03.655Z,7.12
2019-03-05T07:06:03.643Z,7.14
2019-03-05T07:07:03.632Z,7.14
2019-03-05T07:08:03.618Z,7.19
2019-03-05T07:09:03.606Z,7.12
2019-03-05T07:10:03.606Z,7.07
2019-03-05T07:11:03.591Z,7.05
2019-03-05T07:12:03.581Z,7.01
2019-03-05T07:13:03.572Z,6.94
2019-03-05T07:14:03.556Z,6.97
2019-03-05T07:15:03.545Z,6.93
2019-03-05T07:16:03.538Z,6.90
2019-03-05T07:17:03.528Z,6.86
2019-03-05T07:18:03.523Z,6.90
2019-03-05T07:19:03.510Z,6.93
2019-03-05T07:20:03.498Z,6.91
2019-03-05T07:21:03.487Z,6.82
2019-03-05T07:22:03.480Z,6.91
2019-03-05T07:23:03.469Z,6.96
2019-03-05T07:24:03.458Z,6.86
2019-03-05T07:25:03.446Z,6.89
2019-03-05T07:26:03.432Z,6.73
2019-03-05T07:27:03.422Z,6.87
2019-03-05T07:28:03.410Z,6.86
2019-03-05T07:29:03.401Z,6.93
2019-03-05T07:30:03.396Z,6.93
2019-03-05T07:31:03.384Z,6.99
2019-03-05T07:32:03.376Z,6.89
2019-03-05T07:33:03.367Z,6.89
2019-03-05T07:34:03.354Z,6.93
2019-03-05T07:35:03.341Z,6.73
2019-03-05T07:36:03.335Z,6.78
2019-03-05T07:37:03.325Z,6.79
2019-03-05T07:38:03.311Z,6.87
2019-03-05T07:39:03.298Z,6.86
2019-03-05T07:40:03.288Z,6.91
2019-03-05T07:41:03.285Z,6.90
2019-03-05T07:42:03.282Z,6.87
2019-03-05T07:43:03.260Z,6.90
2019-03-05T07:44:03.256Z,6.93
2019-03-05T07:45:03.241Z,6.83
2019-03-05T07:46:03.238Z,6.90
2019-03-05T07:47:03.225Z,6.86
2019-03-05T07:48:03.208Z,6.91
2019-03-05T07:49:03.196Z,6.91
2019-03-05T07:50:03.189Z,6.96
2019-03-05T07:51:03.181Z,6.94
2019-03-05T07:52:03.167Z,6.86
2019-03-05T07:53:03.153Z,6.83
2019-03-05T07:54:03.151Z,6.90
2019-03-05T07:55:13.165Z,6.89
2019-03-05T07:56:03.133Z,6.91
2019-03-05T07:57:03.121Z,6.90
2019-03-05T07:58:03.103Z,6.91
2019-03-05T07:59:03.095Z,6.99
2019-03-05T08:00:05.359Z,6.90
2019-03-05T08:01:03.074Z,7.00
2019-03-05T08:02:03.069Z,6.93
2019-03-05T08:03:03.059Z,6.99
2019-03-05T08:04:03.045Z,6.91
2019-03-05T08:05:03.035Z,7.00
2019-03-05T08:06:03.021Z,6.94
2019-03-05T08:07:03.009Z,6.94
2019-03-05T08:08:03.004Z,6.83
2019-03-05T08:09:02.996Z,6.96
2019-03-05T08:10:02.980Z,6.93
2019-03-05T08:11:02.971Z,6.86
2019-03-05T08:12:02.966Z,6.89
2019-03-05T08:13:02.953Z,6.99
2019-03-05T08:14:02.949Z,7.04
2019-03-05T08:15:02.936Z,7.01
2019-03-05T08:16:02.968Z,7.15
2019-03-05T08:17:02.917Z,7.16
2019-03-05T08:18:02.900Z,7.09
2019-03-05T08:19:02.893Z,7.12
2019-03-05T08:20:02.881Z,7.14
2019-03-05T08:21:02.870Z,7.15
2019-03-05T08:22:02.863Z,7.14
2019-03-05T08:23:02.853Z,7.14
2019-03-05T08:24:02.839Z,7.23
2019-03-05T08:25:02.830Z,7.24
2019-03-05T08:26:02.822Z,7.27
2019-03-05T08:27:02.815Z,7.29
2019-03-05T08:28:02.804Z,7.32
2019-03-05T08:29:03.168Z,7.26
2019-03-05T08:30:13.500Z,7.27
2019-03-05T08:31:02.769Z,7.24
2019-03-05T08:32:02.759Z,7.30
2019-03-05T08:33:02.751Z,7.29
2019-03-05T08:34:02.746Z,7.27
2019-03-05T08:35:02.733Z,7.47
2019-03-05T08:36:02.723Z,7.44
2019-03-05T08:37:02.711Z,7.41
2019-03-05T08:38:02.698Z,7.50
2019-03-05T08:39:02.686Z,7.50
2019-03-05T08:40:02.683Z,7.39
2019-03-05T08:41:02.671Z,7.39
2019-03-05T08:42:02.659Z,7.41
2019-03-05T08:43:02.645Z,7.48
2019-03-05T08:44:02.639Z,7.48
2019-03-05T08:45:02.631Z,7.47
2019-03-05T08:46:02.624Z,7.48
2019-03-05T08:47:02.613Z,7.45
2019-03-05T08:48:02.605Z,7.48
2019-03-05T08:49:02.596Z,7.58
2019-03-05T08:50:02.581Z,7.62
2019-03-05T08:51:02.569Z,7.63
2019-03-05T08:52:02.556Z,7.77
2019-03-05T08:53:02.549Z,7.74
2019-03-05T08:54:02.546Z,7.76
2019-03-05T08:55:02.534Z,7.84
2019-03-05T08:56:02.518Z,7.82
2019-03-05T08:57:02.509Z,7.86
2019-03-05T08:58:02.507Z,7.89
2019-03-05T08:59:02.494Z,7.84
2019-03-05T09:00:02.486Z,7.85
2019-03-05T09:01:02.483Z,7.89
2019-03-05T09:02:02.462Z,8.04
2019-03-05T09:03:02.452Z,7.82
2019-03-05T09:04:02.441Z,7.92
2019-03-05T09:05:02.433Z,8.02
2019-03-05T09:06:02.427Z,7.96
2019-03-05T09:07:02.417Z,7.96
2019-03-05T09:08:02.408Z,8.13
2019-03-05T09:09:02.395Z,8.17
2019-03-05T09:10:02.386Z,8.14
2019-03-05T09:11:02.369Z,8.20
2019-03-05T09:12:02.367Z,8.25
2019-03-05T09:13:02.360Z,8.29
2019-03-05T09:14:02.342Z,8.29
2019-03-05T09:15:02.334Z,8.36
2019-03-05T09:16:02.328Z,8.42
2019-03-05T09:17:02.320Z,8.42
2019-03-05T09:18:02.315Z,8.52
2019-03-05T09:19:02.308Z,8.55
2019-03-05T09:20:02.292Z,8.50
2019-03-05T09:21:02.286Z,8.58
2019-03-05T09:22:02.271Z,8.46
2019-03-05T09:23:02.260Z,8.55
2019-03-05T09:24:02.255Z,8.57
2019-03-05T09:25:02.239Z,8.63
2019-03-05T09:26:02.236Z,8.61
2019-03-05T09:27:02.229Z,8.63
2019-03-05T09:28:02.212Z,8.70
2019-03-05T09:29:02.205Z,8.73
2019-03-05T09:30:02.200Z,8.73
2019-03-05T09:31:02.190Z,8.80
2019-03-05T09:32:02.185Z,8.78
2019-03-05T09:33:02.173Z,8.80
2019-03-05T09:34:02.162Z,8.89
2019-03-05T09:35:02.151Z,8.83
2019-03-05T09:36:02.143Z,8.85
2019-03-05T09:37:02.134Z,8.88
2019-03-05T09:38:02.130Z,8.89
2019-03-05T09:39:03.188Z,8.88
2019-03-05T09:40:02.108Z,8.88
2019-03-05T09:41:02.101Z,8.89
2019-03-05T09:42:02.158Z,9.03
2019-03-05T09:43:02.078Z,9.00
2019-03-05T09:44:02.075Z,8.94
2019-03-05T09:45:02.067Z,8.98
2019-03-05T09:46:02.052Z,8.98
2019-03-05T09:47:02.043Z,9.06
2019-03-05T09:48:02.037Z,9.06
2019-03-05T09:49:02.029Z,9.13
2019-03-05T09:50:02.025Z,9.24
2019-03-05T09:51:02.017Z,9.31
2019-03-05T09:52:02.004Z,9.40
2019-03-05T09:53:01.997Z,9.53
2019-03-05T09:54:01.982Z,9.62
2019-03-05T09:55:01.973Z,9.60
2019-03-05T09:56:01.967Z,9.65
2019-03-05T09:57:01.959Z,9.73
2019-03-05T09:58:08.027Z,9.73
2019-03-05T09:59:01.946Z,9.75
2019-03-05T10:00:01.932Z,9.73
2019-03-05T10:01:01.924Z,9.78
2019-03-05T10:02:01.920Z,9.68
2019-03-05T10:03:01.911Z,9.50
2019-03-05T10:04:01.902Z,9.53
2019-03-05T10:05:01.893Z,9.52
2019-03-05T10:06:01.879Z,9.52
2019-03-05T10:07:01.870Z,9.60
2019-03-05T10:08:01.864Z,9.62
2019-03-05T10:09:01.856Z,9.67
2019-03-05T10:10:01.853Z,9.65
2019-03-05T10:11:01.843Z,9.77
2019-03-05T10:12:01.837Z,9.78
2019-03-05T10:13:04.358Z,9.74
2019-03-05T10:14:01.816Z,9.73
2019-03-05T10:15:01.807Z,9.74
2019-03-05T10:16:01.805Z,9.80
2019-03-05T10:17:01.795Z,9.74
2019-03-05T10:18:12.280Z,9.62
2019-03-05T10:19:01.774Z,9.73
2019-03-05T10:20:01.764Z,9.70
2019-03-05T10:21:01.754Z,9.80
2019-03-05T10:22:01.753Z,9.92
2019-03-05T10:23:01.746Z,9.89
2019-03-05T10:24:09.998Z,9.92
2019-03-05T10:25:05.804Z,9.80
2019-03-05T10:26:01.715Z,9.74
2019-03-05T10:27:01.706Z,9.89
2019-03-05T10:28:01.763Z,9.92
2019-03-05T10:29:01.692Z,9.92
2019-03-05T10:30:01.690Z,9.93
2019-03-05T10:31:01.680Z,9.99
2019-03-05T10:32:01.667Z,9.96
2019-03-05T10:33:01.661Z,10.04
2019-03-05T10:34:01.655Z,10.10
2019-03-05T10:35:01.648Z,10.17
2019-03-05T10:36:01.639Z,10.24
2019-03-05T10:37:12.101Z,10.24
2019-03-05T10:38:01.617Z,10.31
2019-03-05T10:39:01.608Z,10.32
2019-03-05T10:40:01.602Z,10.24
2019-03-05T10:41:01.595Z,10.22
2019-03-05T10:42:01.592Z,10.24
2019-03-05T10:43:08.296Z,10.28
2019-03-05T10:44:01.576Z,10.18
2019-03-05T10:45:01.569Z,10.20
2019-03-05T10:46:01.557Z,10.24
2019-03-05T10:47:01.550Z,10.20
2019-03-05T10:48:01.547Z,10.32
2019-03-05T10:49:01.538Z,10.52
2019-03-05T10:50:01.527Z,10.69
2019-03-05T10:51:01.518Z,10.88
2019-03-05T10:52:01.509Z,11.11
2019-03-05T10:53:01.502Z,11.16
2019-03-05T10:54:02.306Z,11.20
2019-03-05T10:55:01.663Z,11.53
2019-03-05T10:56:01.485Z,11.45
2019-03-05T10:57:01.478Z,11.54
2019-03-05T10:58:01.466Z,11.57
2019-03-05T10:59:01.459Z,11.54
2019-03-05T11:00:01.450Z,11.44
2019-03-05T11:01:01.446Z,11.38
2019-03-05T11:02:01.441Z,11.33
2019-03-05T11:03:01.438Z,11.28
2019-03-05T11:04:01.421Z,11.36
2019-03-05T11:05:01.418Z,11.51
2019-03-05T11:06:01.414Z,11.59
2019-03-05T11:07:01.408Z,11.69
2019-03-05T11:08:01.406Z,11.85
2019-03-05T11:09:01.395Z,11.81
2019-03-05T11:10:01.386Z,11.81
2019-03-05T11:11:12.656Z,11.93
2019-03-05T11:12:01.375Z,12.05
2019-03-05T11:13:01.365Z,12.12
2019-03-05T11:14:01.364Z,12.15
2019-03-05T11:15:01.357Z,12.11
2019-03-05T11:16:01.348Z,12.04
2019-03-05T11:17:01.346Z,12.66
2019-03-05T11:18:01.332Z,12.56
2019-03-05T11:19:01.327Z,12.62
2019-03-05T11:20:01.335Z,12.56
2019-03-05T11:21:01.317Z,12.48
2019-03-05T11:22:01.310Z,12.51
2019-03-05T11:23:01.302Z,12.63
2019-03-05T11:24:01.300Z,12.73
2019-03-05T11:25:01.300Z,12.84
2019-03-05T11:26:01.296Z,12.49
2019-03-05T11:27:01.288Z,12.46
2019-03-05T11:28:01.283Z,12.61
2019-03-05T11:29:01.277Z,12.48
2019-03-05T11:30:01.269Z,12.73
2019-03-05T11:31:01.266Z,12.61
2019-03-05T11:32:01.253Z,12.49
2019-03-05T11:33:01.249Z,12.41
2019-03-05T11:34:01.250Z,12.36
2019-03-05T11:35:01.242Z,12.41
2019-03-05T11:36:01.232Z,12.51
2019-03-05T11:37:01.226Z,12.26
2019-03-05T11:38:01.226Z,12.11
2019-03-05T11:39:01.220Z,12.01
2019-03-05T11:40:01.217Z,12.07
2019-03-05T11:41:01.219Z,12.03
2019-03-05T11:42:01.215Z,11.94
2019-03-05T11:43:01.196Z,12.04
2019-03-05T11:44:01.194Z,12.18
2019-03-05T11:45:07.559Z,12.26
2019-03-05T11:46:01.185Z,12.18
2019-03-05T11:47:01.179Z,12.18
2019-03-05T11:48:01.172Z,12.25
2019-03-05T11:49:01.164Z,12.22
2019-03-05T11:50:01.159Z,12.23
2019-03-05T11:51:01.150Z,12.01
2019-03-05T11:52:01.147Z,11.94
2019-03-05T11:53:01.146Z,11.82
2019-03-05T11:54:01.130Z,11.82
2019-03-05T11:55:01.136Z,11.69
2019-03-05T11:56:01.121Z,11.67
2019-03-05T11:57:01.694Z,11.77
2019-03-05T11:58:01.168Z,11.94
2019-03-05T11:59:01.108Z,11.97
2019-03-05T12:00:01.099Z,11.85
2019-03-05T12:01:01.094Z,11.96
2019-03-05T12:02:01.085Z,11.93
2019-03-05T12:03:01.082Z,12.05
2019-03-05T12:04:01.071Z,12.05
2019-03-05T12:05:01.066Z,12.05
2019-03-05T12:06:01.070Z,12.01
2019-03-05T12:07:01.054Z,12.00
2019-03-05T12:08:01.044Z,12.07
2019-03-05T12:09:01.042Z,12.21
2019-03-05T12:10:01.036Z,12.43
2019-03-05T12:11:01.030Z,12.49
2019-03-05T12:12:01.020Z,12.58
2019-03-05T12:13:01.014Z,12.80
2019-03-05T12:14:01.054Z,12.79
2019-03-05T12:15:00.994Z,12.73
2019-03-05T12:16:00.990Z,12.76
2019-03-05T12:17:00.982Z,12.81
2019-03-05T12:18:00.982Z,12.77
2019-03-05T12:19:00.974Z,12.73
2019-03-05T12:20:00.975Z,12.87
2019-03-05T12:21:00.966Z,12.98
2019-03-05T12:22:00.954Z,13.25
2019-03-05T12:23:02.344Z,13.32
2019-03-05T12:24:00.947Z,13.63
2019-03-05T12:25:01.840Z,13.81
2019-03-05T12:26:00.929Z,13.80
2019-03-05T12:27:00.923Z,13.87
2019-03-05T12:28:09.866Z,13.61
2019-03-05T12:29:00.908Z,13.51
2019-03-05T12:30:00.909Z,13.47
2019-03-05T12:31:00.901Z,13.43
2019-03-05T12:32:00.895Z,13.38
2019-03-05T12:33:00.889Z,13.46
2019-03-05T12:34:00.882Z,13.46
2019-03-05T12:35:00.873Z,13.63
2019-03-05T12:36:00.869Z,13.68
2019-03-05T12:37:00.870Z,13.91
2019-03-05T12:38:00.864Z,13.99
2019-03-05T12:39:00.861Z,14.02
2019-03-05T12:40:00.849Z,14.06
2019-03-05T12:41:00.843Z,13.94
2019-03-05T12:42:03.446Z,13.93
2019-03-05T12:43:00.836Z,13.80
2019-03-05T12:44:00.832Z,13.73
2019-03-05T12:45:00.825Z,13.55
2019-03-05T12:46:00.813Z,13.53
2019-03-05T12:47:00.809Z,13.65
2019-03-05T12:48:00.812Z,13.76
2019-03-05T12:49:00.799Z,13.84
2019-03-05T12:50:00.798Z,13.90
2019-03-05T12:51:00.795Z,13.93
2019-03-05T12:52:00.791Z,13.65
2019-03-05T12:53:00.786Z,13.63
2019-03-05T12:54:00.776Z,13.46
2019-03-05T12:55:00.771Z,13.29
2019-03-05T12:56:00.769Z,13.29
2019-03-05T12:57:00.764Z,13.14
2019-03-05T12:58:00.760Z,13.14
2019-03-05T12:59:00.747Z,13.14
2019-03-05T13:00:00.748Z,13.36
2019-03-05T13:01:00.737Z,13.62
2019-03-05T13:02:00.748Z,13.86
2019-03-05T13:03:00.728Z,13.83
2019-03-05T13:04:00.719Z,13.98
2019-03-05T13:05:00.730Z,14.04
2019-03-05T13:06:00.716Z,13.94
2019-03-05T13:07:00.707Z,13.88
2019-03-05T13:08:00.705Z,13.66
2019-03-05T13:09:00.698Z,13.65
2019-03-05T13:10:02.404Z,13.47
2019-03-05T13:11:00.687Z,13.48
2019-03-05T13:12:00.683Z,13.79
2019-03-05T13:13:00.679Z,13.88